Elkport, Iowa
Current Conditions -  °F | °C
As of 1:35 PM on Thursday 23 Oct 2014 (Local Time) from KPDC Reporting Station
Overcast Overcast  
Wind Chill: 46°   Ceiling: 1000
Heat Index: 48°   Visibility: 10mi
Dew Point: 45°   Wind: 5mph
Humidity: 89%   Direction: 130°SE
Pressure: 30.05"   Gusts: NA
Location:  42.74°N, 91.28°W
Report Text: KPDC 231835Z AUTO 13004KT 10SM OVC010 09/07 A3005 RMK AO2 T00900073
Loading
Personal Weather Stations






























Interactive Weather Map
Tropical Storm Tracking
New forecast layout! Learn more

10-Day Weather Forecast

Advertisements
Track Severe Weather on mobile